UTAVUTSB

Guest
Details From UTAV - TURKMENABAT
To UTSB - BUKHARA
Flight Number -
Tags generated
Created
Modified
Stats Distance 58 nm / 107 km
Max Altitude 0 ft / 0 m
Waypoints 2
Social Downloads 0
Likes 0
Share VATSIM

Download

Looking for another format? Having issues loading an existing format? Contact us
Advertisement - Login to hide

Notes

Basic altitude profile: - Ascent Rate: 2500ft/min - Ascent Speed: 250kts - Cruise Altitude: 35000ft - Cruise Speed: 420kts - Descent Rate: 1500ft/min - Descent Speed: 250kts Options: - Use NATs: yes - Use PACOTS: yes - Use low airways: yes - Use high airways: yes

Route

UTAV UTSB

ID Type Via Altitude Latitude Longitude Leg Dist Tot Dist Heading (true) Name
O UTAV APT - 0 ft / 0 m 39.08333˚ 63.61333˚ - 0 nm - TURKMENABAT
O UTSB APT - 0 ft / 0 m 39.77500˚ 64.48333˚ 57 nm 57 nm 44° / 44° BUKHARA

Altitude Profile

Advertisement - Login to hide

UTAV

Details ICAO UTAV
Name TURKMENABAT
Region Tajikistan, Turkmenistan and Uzbekistan
Timezone Asia/Ashgabat (UTC+5.0)
Stats Elevation 630 ft / 192 m (AMSL)
Location 39.083333° 63.613334°
Runways 1
Magnetic Variation 5.048° E

METAR

UTAV 151600Z 04004KT 5000 BR SKC M03/M05 Q1030 NOSIG

Decode

TAF

TAF UTAV 151030Z 1512/1612 36012KT 3000 BR BKN010 530001 TEMPO 1514/1518 VRB04KT 0400 FZFG VV002 TEMPO 1518/1604 0200 FZFG VV001 BECMG 1605/1607 3000 BR BKN008

Decode

Departure Runways

ID Width Length Bearing (true) Bearing (mag) Surface Threshold Offset Overrun Length
15 138 ft / 42 m 8,945 ft / 2,727 m 155.02° 149.97° Asphalt 0 ft / 0 m 0 ft / 0 m
33 138 ft / 42 m 8,945 ft / 2,727 m 335.03° 329.98° Asphalt 0 ft / 0 m 0 ft / 0 m

UTSB

Details ICAO UTSB (BHK)
Name BUKHARA
Region Tajikistan, Turkmenistan and Uzbekistan
Timezone Asia/Samarkand (UTC+5.0)
Stats Elevation 751 ft / 229 m (AMSL)
Location 39.775000° 64.483334°
Runways 1
Magnetic Variation 5.243° E

METAR

UTSB 151600Z 01006KT 0900 R01/P2000 FZFG VV001 M03/M03 Q1028 R01/CLRD70 NOSIG RMK BASE160

Decode

TAF

TAF UTSB 151100Z 1512/1612 VRB03KT 2500 BR FEW005 SCT020 TEMPO 1512/1523 02008KT 0500 FZFG VV002

Decode

Destination Runways

ID Width Length Bearing (true) Bearing (mag) Surface Threshold Offset Overrun Length
01 147 ft / 45 m 9,909 ft / 3,020 m 10.87° 5.63° Asphalt 0 ft / 0 m 177 ft / 54 m
19 147 ft / 45 m 9,909 ft / 3,020 m 190.88° 185.64° Asphalt 0 ft / 0 m 177 ft / 54 m

Approach Navaids

Runway Type Ident Frequency Range Bearing (true) Bearing (mag) Slope Elevation
01 Localiser IUH 110.30 MHz 18 nm / 33 km 10.88° 5.63° - 753 ft / 230 m (AMSL)
01 Glidescope IUH 110.30 MHz 10 nm / 19 km 10.88° 5.63° 3.00° 736 ft / 224 m (AMSL)